createdAt,value
2019-05-19T00:09:54.712Z,3.78
2019-05-19T00:30:04.164Z,4.06
2019-05-19T00:50:13.568Z,4.02
2019-05-19T01:10:22.985Z,3.50
2019-05-19T01:30:32.390Z,6.55
2019-05-19T01:50:41.827Z,5.89
2019-05-19T02:10:51.280Z,3.92
2019-05-19T02:31:00.711Z,4.31
2019-05-19T02:51:13.102Z,3.72
2019-05-19T03:11:12.673Z,3.66
2019-05-19T03:31:22.317Z,6.67
2019-05-19T03:51:32.104Z,3.94
2019-05-19T04:11:40.934Z,3.77
2019-05-19T04:31:50.532Z,3.67
2019-05-19T04:52:06.842Z,3.17
2019-05-19T05:12:01.271Z,3.20
2019-05-19T05:32:10.707Z,2.82
2019-05-19T05:52:37.234Z,2.98
2019-05-19T06:12:21.543Z,3.56
2019-05-19T06:32:31.170Z,2.97
2019-05-19T06:52:48.348Z,2.55
2019-05-19T07:12:47.946Z,2.29
2019-05-19T07:32:57.795Z,2.45
2019-05-19T07:53:07.639Z,2.38
2019-05-19T08:13:17.156Z,2.96
2019-05-19T08:33:26.694Z,2.30
2019-05-19T08:53:38.463Z,2.56
2019-05-19T09:13:38.208Z,2.21
2019-05-19T09:33:50.142Z,3.07
2019-05-19T09:53:49.894Z,2.35
2019-05-19T10:13:59.394Z,2.05
2019-05-19T10:34:11.156Z,2.85
2019-05-19T10:54:12.953Z,1.79
2019-05-19T11:14:12.333Z,1.50
2019-05-19T11:34:21.879Z,1.51
2019-05-19T11:54:31.337Z,1.61
2019-05-19T12:14:40.916Z,1.56
2019-05-19T12:34:51.400Z,1.56
2019-05-19T12:54:50.889Z,1.97
2019-05-19T13:15:00.486Z,1.59
2019-05-19T13:35:10.044Z,2.17
2019-05-19T13:55:19.688Z,1.44
2019-05-19T14:15:29.377Z,1.48
2019-05-19T14:35:41.309Z,1.44
2019-05-19T14:55:40.808Z,1.59
2019-05-19T15:15:52.587Z,1.59
2019-05-19T15:35:52.097Z,2.17
2019-05-19T15:56:01.553Z,2.06
2019-05-19T16:16:11.224Z,1.84
2019-05-19T16:36:22.411Z,1.84
2019-05-19T16:56:22.019Z,1.97
2019-05-19T17:16:31.483Z,2.19
2019-05-19T17:36:41.635Z,2.28
2019-05-19T17:56:41.239Z,2.52
2019-05-19T18:16:50.947Z,2.70
2019-05-19T18:37:05.184Z,3.21
2019-05-19T18:57:05.367Z,3.12
2019-05-19T19:17:05.796Z,3.16
2019-05-19T19:37:05.521Z,3.10
2019-05-19T19:57:14.943Z,3.01
2019-05-19T20:17:24.498Z,3.15
2019-05-19T20:37:34.015Z,3.21
2019-05-19T20:57:43.524Z,4.17
2019-05-19T21:17:52.973Z,4.14
2019-05-19T21:38:02.584Z,4.06
2019-05-19T21:58:12.054Z,4.13
2019-05-19T22:18:21.435Z,3.64
2019-05-19T22:38:30.900Z,4.01
2019-05-19T22:58:41.622Z,3.71
2019-05-19T23:18:49.246Z,3.91
2019-05-19T23:38:58.795Z,3.57
2019-05-19T23:59:10.634Z,3.66
